createdAt,value
2022-10-03T00:00:29.071Z,11.44
2022-10-03T00:02:36.553Z,11.43
2022-10-03T00:04:40.983Z,11.42
2022-10-03T00:06:48.857Z,11.40
2022-10-03T00:09:12.166Z,11.36
2022-10-03T00:11:52.450Z,11.33
2022-10-03T00:14:13.184Z,11.32
2022-10-03T00:16:29.683Z,11.30
2022-10-03T00:18:43.453Z,11.28
2022-10-03T00:21:14.506Z,11.25
2022-10-03T00:23:40.774Z,11.25
2022-10-03T00:25:54.382Z,11.23
2022-10-03T00:28:17.253Z,11.22
2022-10-03T00:30:25.105Z,11.19
2022-10-03T00:32:35.843Z,11.16
2022-10-03T00:35:08.030Z,11.14
2022-10-03T00:37:35.599Z,11.13
2022-10-03T00:40:02.003Z,11.12
2022-10-03T00:42:07.182Z,11.10
2022-10-03T00:44:27.023Z,11.11
2022-10-03T00:46:49.801Z,11.12
2022-10-03T00:49:15.853Z,11.08
2022-10-03T00:51:39.534Z,11.07
2022-10-03T00:54:12.745Z,11.07
2022-10-03T00:56:15.431Z,11.05
2022-10-03T00:58:45.374Z,11.02
2022-10-03T01:00:51.433Z,11.00
2022-10-03T01:03:08.060Z,10.99
2022-10-03T01:05:36.460Z,10.99
2022-10-03T01:07:58.261Z,10.95
2022-10-03T01:10:18.321Z,10.96
2022-10-03T01:12:41.049Z,10.93
2022-10-03T01:14:52.399Z,10.94
2022-10-03T01:17:32.404Z,10.95
2022-10-03T01:19:37.530Z,10.93
2022-10-03T01:21:47.291Z,10.93
2022-10-03T01:23:54.983Z,10.95
2022-10-03T01:26:26.024Z,10.95
2022-10-03T01:29:16.361Z,10.97
2022-10-03T01:31:23.816Z,10.99
2022-10-03T01:33:32.031Z,11.00
2022-10-03T01:35:34.067Z,11.01
2022-10-03T01:37:35.458Z,11.04
2022-10-03T01:39:58.501Z,11.04
2022-10-03T01:42:03.391Z,11.04
2022-10-03T01:44:16.419Z,11.05
2022-10-03T01:46:23.738Z,11.05
2022-10-03T01:49:07.664Z,11.02
2022-10-03T01:51:16.805Z,11.04
2022-10-03T01:53:40.704Z,11.06
2022-10-03T01:56:12.521Z,11.07
2022-10-03T01:58:28.619Z,11.05
2022-10-03T02:00:47.709Z,11.06
2022-10-03T02:03:04.153Z,11.09
2022-10-03T02:05:12.942Z,11.09
2022-10-03T02:07:35.176Z,11.10
2022-10-03T02:10:02.530Z,11.13
2022-10-03T02:12:10.222Z,11.14
2022-10-03T02:14:25.461Z,11.15
2022-10-03T02:16:57.402Z,11.18
2022-10-03T02:19:07.080Z,11.19
2022-10-03T02:21:14.394Z,11.20
2022-10-03T02:23:36.774Z,11.20
2022-10-03T02:26:22.225Z,11.18
2022-10-03T02:28:28.364Z,11.18
2022-10-03T02:30:37.184Z,11.19
2022-10-03T02:33:10.945Z,11.19
2022-10-03T02:35:30.701Z,11.19
2022-10-03T02:37:46.625Z,11.19
2022-10-03T02:40:25.644Z,11.17
2022-10-03T02:43:04.904Z,11.14
2022-10-03T02:45:44.218Z,11.15
2022-10-03T02:48:30.794Z,11.14
2022-10-03T02:51:01.536Z,11.13
2022-10-03T02:53:27.707Z,11.10
2022-10-03T02:55:46.127Z,11.07
2022-10-03T02:58:18.197Z,11.04
2022-10-03T03:00:36.590Z,11.04
2022-10-03T03:02:58.833Z,11.00
2022-10-03T03:05:24.900Z,10.99
2022-10-03T03:07:44.750Z,10.95
2022-10-03T03:10:07.641Z,10.91
2022-10-03T03:12:30.864Z,10.90
2022-10-03T03:14:38.614Z,10.90
2022-10-03T03:17:17.412Z,10.86
2022-10-03T03:19:35.761Z,10.84
2022-10-03T03:22:10.030Z,10.83
2022-10-03T03:24:20.328Z,10.82
2022-10-03T03:26:51.517Z,10.80
2022-10-03T03:29:18.835Z,10.76
2022-10-03T03:31:39.242Z,10.75
2022-10-03T03:33:52.848Z,10.76
2022-10-03T03:36:07.639Z,10.75
2022-10-03T03:38:35.598Z,10.73
2022-10-03T03:40:56.515Z,10.71
2022-10-03T03:43:16.673Z,10.69
2022-10-03T03:45:41.018Z,10.67
2022-10-03T03:48:06.172Z,10.68
2022-10-03T03:50:20.207Z,10.67
2022-10-03T03:52:35.165Z,10.64
2022-10-03T03:55:13.241Z,10.62
2022-10-03T03:57:33.077Z,10.59
2022-10-03T04:00:13.813Z,10.56
2022-10-03T04:02:23.722Z,10.55
2022-10-03T04:04:31.149Z,10.55
2022-10-03T04:06:56.440Z,10.53
2022-10-03T04:09:19.078Z,10.51
2022-10-03T04:11:59.197Z,10.52
2022-10-03T04:14:11.171Z,10.52
2022-10-03T04:16:54.090Z,10.53
2022-10-03T04:19:14.167Z,10.51
2022-10-03T04:21:55.988Z,10.51
2022-10-03T04:24:23.293Z,10.50
2022-10-03T04:27:06.068Z,10.51
2022-10-03T04:29:36.300Z,10.52
2022-10-03T04:32:21.383Z,10.54
2022-10-03T04:34:23.060Z,10.57
2022-10-03T04:36:31.176Z,10.59
2022-10-03T04:38:49.092Z,10.60
2022-10-03T04:40:58.453Z,10.62
2022-10-03T04:43:15.785Z,10.63
2022-10-03T04:45:31.666Z,10.64
2022-10-03T04:47:52.882Z,10.63
2022-10-03T04:50:03.129Z,10.65
2022-10-03T04:52:19.911Z,10.65
2022-10-03T04:54:43.501Z,10.65
2022-10-03T04:57:01.623Z,10.65
2022-10-03T04:59:08.996Z,10.63
2022-10-03T05:01:26.397Z,10.64
2022-10-03T05:04:01.958Z,10.61
2022-10-03T05:06:22.727Z,10.61
2022-10-03T05:08:35.964Z,10.61
2022-10-03T05:10:56.720Z,10.59
2022-10-03T05:13:19.597Z,10.58
2022-10-03T05:15:27.287Z,10.55
2022-10-03T05:17:46.000Z,10.53
2022-10-03T05:20:02.957Z,10.47
2022-10-03T05:22:17.110Z,10.51
2022-10-03T05:24:49.515Z,10.47
2022-10-03T05:26:59.693Z,10.47
2022-10-03T05:29:21.947Z,10.46
2022-10-03T05:31:48.952Z,10.44
2022-10-03T05:34:17.848Z,10.43
2022-10-03T05:36:25.353Z,10.46
2022-10-03T05:38:53.324Z,10.47
2022-10-03T05:41:26.098Z,10.45
2022-10-03T05:43:58.154Z,10.45
2022-10-03T05:46:22.771Z,10.45
2022-10-03T05:48:43.493Z,10.45
2022-10-03T05:51:11.842Z,10.45
2022-10-03T05:53:50.845Z,10.47
2022-10-03T05:56:13.689Z,10.49
2022-10-03T05:58:26.021Z,10.51
2022-10-03T06:00:39.430Z,10.54
2022-10-03T06:02:52.971Z,10.55
2022-10-03T06:05:02.850Z,10.57
2022-10-03T06:07:04.515Z,10.59
2022-10-03T06:10:05.142Z,10.62
2022-10-03T06:12:07.430Z,10.64
2022-10-03T06:14:24.387Z,10.68
2022-10-03T06:16:43.925Z,10.71
2022-10-03T06:19:03.770Z,10.73
2022-10-03T06:21:32.354Z,10.76
2022-10-03T06:24:02.468Z,10.80
2022-10-03T06:26:22.258Z,10.81
2022-10-03T06:28:30.912Z,10.87
2022-10-03T06:30:38.220Z,10.87
2022-10-03T06:32:39.626Z,10.93
2022-10-03T06:35:01.012Z,10.95
2022-10-03T06:37:17.807Z,11.01
2022-10-03T06:39:57.528Z,11.05
2022-10-03T06:42:04.115Z,11.12
2022-10-03T06:44:42.977Z,11.17
2022-10-03T06:47:38.610Z,11.24
2022-10-03T06:49:49.107Z,11.30
2022-10-03T06:52:07.064Z,11.33
2022-10-03T06:54:23.446Z,11.39
2022-10-03T06:57:05.521Z,11.46
2022-10-03T06:59:29.861Z,11.52
2022-10-03T07:02:10.077Z,11.58
2022-10-03T07:04:29.506Z,11.67
2022-10-03T07:07:05.753Z,11.73
2022-10-03T07:09:25.225Z,11.80
2022-10-03T07:12:08.619Z,11.87
2022-10-03T07:14:43.821Z,11.95
2022-10-03T07:17:04.618Z,12.02
2022-10-03T07:19:29.236Z,12.12
2022-10-03T07:21:42.293Z,12.17
2022-10-03T07:23:52.860Z,12.24
2022-10-03T07:26:48.197Z,12.25
2022-10-03T07:28:56.669Z,12.25
2022-10-03T07:31:26.821Z,12.25
2022-10-03T07:33:33.381Z,12.29
2022-10-03T07:36:05.719Z,12.35
2022-10-03T07:38:58.181Z,12.49
2022-10-03T07:41:32.484Z,12.60
2022-10-03T07:44:02.083Z,12.69
2022-10-03T07:46:04.377Z,12.74
2022-10-03T07:48:36.734Z,12.80
2022-10-03T07:51:13.194Z,12.87
2022-10-03T07:53:26.428Z,12.98
2022-10-03T07:55:53.621Z,13.09
2022-10-03T07:58:13.055Z,13.16
2022-10-03T08:00:57.205Z,13.25
2022-10-03T08:03:24.922Z,13.32
2022-10-03T08:05:32.985Z,13.38
2022-10-03T08:07:55.771Z,13.50
2022-10-03T08:10:18.625Z,13.59
2022-10-03T08:12:51.941Z,13.67
2022-10-03T08:15:21.516Z,13.71
2022-10-03T08:17:38.881Z,13.72
2022-10-03T08:19:58.601Z,13.72
2022-10-03T08:22:20.373Z,13.71
2022-10-03T08:24:40.164Z,13.67
2022-10-03T08:27:02.826Z,13.63
2022-10-03T08:29:26.366Z,13.66
2022-10-03T08:31:49.174Z,13.70
2022-10-03T08:34:10.195Z,13.73
2022-10-03T08:36:29.559Z,13.80
2022-10-03T08:38:55.294Z,13.87
2022-10-03T08:41:08.172Z,13.95
2022-10-03T08:43:52.936Z,14.04
2022-10-03T08:46:17.872Z,14.11
2022-10-03T08:49:17.671Z,14.20
2022-10-03T08:51:38.203Z,14.27
2022-10-03T08:54:05.108Z,14.33
2022-10-03T08:56:35.863Z,14.41
2022-10-03T08:59:02.261Z,14.49
2022-10-03T09:01:28.135Z,14.57
2022-10-03T09:03:54.207Z,14.62
2022-10-03T09:06:12.193Z,14.66
2022-10-03T09:08:25.898Z,14.73
2022-10-03T09:10:30.197Z,14.77
2022-10-03T09:12:42.754Z,14.80
2022-10-03T09:15:25.077Z,14.86
2022-10-03T09:18:21.659Z,14.94
2022-10-03T09:20:41.051Z,15.01
2022-10-03T09:22:57.550Z,15.05
2022-10-03T09:25:07.819Z,15.05
2022-10-03T09:27:24.108Z,15.07
2022-10-03T09:29:33.822Z,15.12
2022-10-03T09:32:05.974Z,15.17
2022-10-03T09:34:25.331Z,15.19
2022-10-03T09:36:54.932Z,15.23
2022-10-03T09:39:25.211Z,15.28
2022-10-03T09:42:24.065Z,15.34
2022-10-03T09:44:34.359Z,15.43
2022-10-03T09:47:07.439Z,15.51
2022-10-03T09:49:15.259Z,15.60
2022-10-03T09:51:51.590Z,15.63
2022-10-03T09:54:23.838Z,15.67
2022-10-03T09:56:45.485Z,15.69
2022-10-03T09:58:55.960Z,15.72
2022-10-03T10:01:18.963Z,15.78
2022-10-03T10:03:38.983Z,15.85
2022-10-03T10:06:04.629Z,15.89
2022-10-03T10:08:25.049Z,15.92
2022-10-03T10:10:45.014Z,15.95
2022-10-03T10:13:20.583Z,15.99
2022-10-03T10:15:28.282Z,16.01
2022-10-03T10:17:47.001Z,16.03
2022-10-03T10:20:11.397Z,16.02
2022-10-03T10:22:50.525Z,16.05
2022-10-03T10:25:13.304Z,16.10
2022-10-03T10:27:33.189Z,16.13
2022-10-03T10:29:56.516Z,16.09
2022-10-03T10:32:23.693Z,16.19
2022-10-03T10:35:02.444Z,16.43
2022-10-03T10:37:24.914Z,16.63
2022-10-03T10:39:27.984Z,16.64
2022-10-03T10:41:44.261Z,16.80
2022-10-03T10:44:10.424Z,17.08
2022-10-03T10:46:30.433Z,17.12
2022-10-03T10:49:03.799Z,17.04
2022-10-03T10:51:36.151Z,16.92
2022-10-03T10:53:59.414Z,16.83
2022-10-03T10:56:27.601Z,16.75
2022-10-03T10:58:50.026Z,16.67
2022-10-03T11:01:28.740Z,16.82
2022-10-03T11:04:29.871Z,16.93
2022-10-03T11:06:50.158Z,16.84
2022-10-03T11:09:19.342Z,16.73
2022-10-03T11:11:56.742Z,17.39
2022-10-03T11:14:22.333Z,18.23
2022-10-03T11:16:39.821Z,18.88
2022-10-03T11:19:29.329Z,18.77
2022-10-03T11:21:51.805Z,18.68
2022-10-03T11:24:14.898Z,18.56
2022-10-03T11:26:34.548Z,18.19
2022-10-03T11:28:57.239Z,17.89
2022-10-03T11:31:07.375Z,17.65
2022-10-03T11:33:08.858Z,17.48
2022-10-03T11:35:52.351Z,17.34
2022-10-03T11:38:04.990Z,17.15
2022-10-03T11:40:40.690Z,17.10
2022-10-03T11:42:50.849Z,17.37
2022-10-03T11:44:59.483Z,17.83
2022-10-03T11:47:08.265Z,18.06
2022-10-03T11:49:21.481Z,18.20
2022-10-03T11:51:43.148Z,18.25
2022-10-03T11:54:07.622Z,18.08
2022-10-03T11:56:30.977Z,17.81
2022-10-03T11:58:47.659Z,17.52
2022-10-03T12:01:00.028Z,17.38
2022-10-03T12:03:26.924Z,17.38
2022-10-03T12:05:50.188Z,17.75
2022-10-03T12:08:40.589Z,17.88
2022-10-03T12:11:14.122Z,18.08
2022-10-03T12:13:30.342Z,18.06
2022-10-03T12:15:43.342Z,17.98
2022-10-03T12:17:55.805Z,17.88
2022-10-03T12:20:27.527Z,17.94
2022-10-03T12:22:53.470Z,18.08
2022-10-03T12:25:04.485Z,18.14
2022-10-03T12:27:09.831Z,18.20
2022-10-03T12:29:19.163Z,18.22
2022-10-03T12:31:36.097Z,18.12
2022-10-03T12:33:51.288Z,17.93
2022-10-03T12:36:04.938Z,17.73
2022-10-03T12:38:15.112Z,17.56
2022-10-03T12:40:32.178Z,17.48
2022-10-03T12:42:44.442Z,17.52
2022-10-03T12:44:59.773Z,17.67
2022-10-03T12:47:43.952Z,17.75
2022-10-03T12:50:12.675Z,17.73
2022-10-03T12:52:26.069Z,17.72
2022-10-03T12:54:39.484Z,17.74
2022-10-03T12:57:03.928Z,17.73
2022-10-03T12:59:11.159Z,17.62
2022-10-03T13:01:16.768Z,17.51
2022-10-03T13:03:26.042Z,17.40
2022-10-03T13:05:43.537Z,17.30
2022-10-03T13:08:22.777Z,17.22
2022-10-03T13:10:42.489Z,17.18
2022-10-03T13:13:13.254Z,17.18
2022-10-03T13:15:36.331Z,17.19
2022-10-03T13:18:27.282Z,17.08
2022-10-03T13:20:39.302Z,17.00
2022-10-03T13:23:23.531Z,16.89
2022-10-03T13:25:35.391Z,16.79
2022-10-03T13:27:47.718Z,16.73
2022-10-03T13:29:55.301Z,16.67
2022-10-03T13:31:56.871Z,16.65
2022-10-03T13:34:03.801Z,16.66
2022-10-03T13:36:09.858Z,16.65
2022-10-03T13:38:17.013Z,16.64
2022-10-03T13:40:19.791Z,16.66
2022-10-03T13:42:47.150Z,16.67
2022-10-03T13:44:59.414Z,16.67
2022-10-03T13:47:20.375Z,16.68
2022-10-03T13:50:15.292Z,16.67
2022-10-03T13:52:41.406Z,16.66
2022-10-03T13:55:01.307Z,16.66
2022-10-03T13:57:38.817Z,16.63
2022-10-03T13:59:53.614Z,16.66
2022-10-03T14:02:18.206Z,16.60
2022-10-03T14:04:22.417Z,16.60
2022-10-03T14:06:37.447Z,16.59
2022-10-03T14:09:10.488Z,16.55
2022-10-03T14:11:33.756Z,16.52
2022-10-03T14:13:43.434Z,16.47
2022-10-03T14:15:47.706Z,16.46
2022-10-03T14:18:03.843Z,16.45
2022-10-03T14:20:11.492Z,16.45
2022-10-03T14:22:40.352Z,16.42
2022-10-03T14:24:57.479Z,16.44
2022-10-03T14:27:27.260Z,16.45
2022-10-03T14:29:50.519Z,16.44
2022-10-03T14:31:57.177Z,16.45
2022-10-03T14:34:20.638Z,16.44
2022-10-03T14:36:41.891Z,16.46
2022-10-03T14:39:22.165Z,16.46
2022-10-03T14:41:32.411Z,16.45
2022-10-03T14:43:38.611Z,16.45
2022-10-03T14:45:46.733Z,16.44
2022-10-03T14:47:51.687Z,16.41
2022-10-03T14:49:59.250Z,16.41
2022-10-03T14:52:27.527Z,16.39
2022-10-03T14:54:31.409Z,16.39
2022-10-03T14:56:41.221Z,16.39
2022-10-03T14:58:52.265Z,16.37
2022-10-03T15:01:13.120Z,16.34
2022-10-03T15:03:17.370Z,16.32
2022-10-03T15:05:35.673Z,16.30
2022-10-03T15:07:55.916Z,16.26
2022-10-03T15:09:58.562Z,16.26
2022-10-03T15:12:05.643Z,16.26
2022-10-03T15:14:10.255Z,16.27
2022-10-03T15:16:17.787Z,16.24
2022-10-03T15:18:23.787Z,16.22
2022-10-03T15:20:31.099Z,16.19
2022-10-03T15:22:39.691Z,16.21
2022-10-03T15:24:41.611Z,16.14
2022-10-03T15:26:47.087Z,16.17
2022-10-03T15:28:53.749Z,16.17
2022-10-03T15:30:57.989Z,16.15
2022-10-03T15:33:17.143Z,16.15
2022-10-03T15:35:27.837Z,16.14
2022-10-03T15:37:35.330Z,16.14
2022-10-03T15:39:43.244Z,16.12
2022-10-03T15:41:52.998Z,16.08
2022-10-03T15:44:06.212Z,16.08
2022-10-03T15:46:28.115Z,16.05
2022-10-03T15:48:31.200Z,16.02
2022-10-03T15:50:40.866Z,15.99
2022-10-03T15:52:46.095Z,15.95
2022-10-03T15:54:56.898Z,15.94
2022-10-03T15:57:25.059Z,15.91
2022-10-03T15:59:34.565Z,15.90
2022-10-03T16:01:43.476Z,15.87
2022-10-03T16:03:53.790Z,15.86
2022-10-03T16:05:58.238Z,15.86
2022-10-03T16:08:06.883Z,15.85
2022-10-03T16:10:08.776Z,15.76
2022-10-03T16:12:38.505Z,15.76
2022-10-03T16:14:51.570Z,15.75
2022-10-03T16:17:00.383Z,15.73
2022-10-03T16:19:29.439Z,15.67
2022-10-03T16:21:49.088Z,15.63
2022-10-03T16:23:56.321Z,15.59
2022-10-03T16:26:03.340Z,15.58
2022-10-03T16:28:08.516Z,15.56
2022-10-03T16:30:09.945Z,15.52
2022-10-03T16:32:20.166Z,15.49
2022-10-03T16:34:25.577Z,15.45
2022-10-03T16:36:27.334Z,15.41
2022-10-03T16:38:36.482Z,15.38
2022-10-03T16:40:38.783Z,15.35
2022-10-03T16:42:44.566Z,15.35
2022-10-03T16:44:45.942Z,15.33
2022-10-03T16:46:48.279Z,15.33
2022-10-03T16:49:10.231Z,15.29
2022-10-03T16:51:33.474Z,15.26
2022-10-03T16:53:35.031Z,15.23
2022-10-03T16:55:45.744Z,15.21
2022-10-03T16:57:58.515Z,15.17
2022-10-03T17:00:06.631Z,15.15
2022-10-03T17:02:15.126Z,15.13
2022-10-03T17:04:24.354Z,15.00
2022-10-03T17:06:36.775Z,15.03
2022-10-03T17:08:46.322Z,15.00
2022-10-03T17:10:54.425Z,14.97
2022-10-03T17:13:03.611Z,14.94
2022-10-03T17:15:09.386Z,14.93
2022-10-03T17:17:11.216Z,14.88
2022-10-03T17:19:31.250Z,14.80
2022-10-03T17:21:33.488Z,14.70
2022-10-03T17:23:39.814Z,14.62
2022-10-03T17:25:57.313Z,14.52
2022-10-03T17:27:59.878Z,14.46
2022-10-03T17:30:29.772Z,14.41
2022-10-03T17:32:40.004Z,14.40
2022-10-03T17:34:58.776Z,14.36
2022-10-03T17:37:24.842Z,14.30
2022-10-03T17:39:38.507Z,14.22
2022-10-03T17:41:44.213Z,14.18
2022-10-03T17:44:07.285Z,14.17
2022-10-03T17:46:35.991Z,14.10
2022-10-03T17:49:17.666Z,14.02
2022-10-03T17:51:28.533Z,13.99
2022-10-03T17:53:33.842Z,13.96
2022-10-03T17:55:41.203Z,13.94
2022-10-03T17:57:51.715Z,13.88
2022-10-03T18:00:09.340Z,13.82
2022-10-03T18:02:21.433Z,13.75
2022-10-03T18:04:38.913Z,13.69
2022-10-03T18:06:50.304Z,13.66
2022-10-03T18:08:53.344Z,13.63
2022-10-03T18:10:57.943Z,13.61
2022-10-03T18:13:02.065Z,13.57
2022-10-03T18:15:16.308Z,13.51
2022-10-03T18:17:39.686Z,13.44
2022-10-03T18:20:06.059Z,13.39
2022-10-03T18:22:18.687Z,13.37
2022-10-03T18:24:38.219Z,13.31
2022-10-03T18:26:54.421Z,13.29
2022-10-03T18:29:16.977Z,13.22
2022-10-03T18:31:21.946Z,13.18
2022-10-03T18:33:27.489Z,13.15
2022-10-03T18:35:34.053Z,13.12
2022-10-03T18:37:41.346Z,13.08
2022-10-03T18:39:43.965Z,13.03
2022-10-03T18:41:49.476Z,12.97
2022-10-03T18:43:58.588Z,12.96
2022-10-03T18:46:30.216Z,12.92
2022-10-03T18:48:42.787Z,12.89
2022-10-03T18:50:44.178Z,12.86
2022-10-03T18:52:52.571Z,12.85
2022-10-03T18:55:02.740Z,12.82
2022-10-03T18:57:10.971Z,12.77
2022-10-03T18:59:27.393Z,12.69
2022-10-03T19:01:36.290Z,12.67
2022-10-03T19:03:44.299Z,12.65
2022-10-03T19:05:59.037Z,12.62
2022-10-03T19:08:10.659Z,12.61
2022-10-03T19:10:37.404Z,12.56
2022-10-03T19:12:46.636Z,12.55
2022-10-03T19:14:50.997Z,12.52
2022-10-03T19:17:17.219Z,12.47
2022-10-03T19:19:18.609Z,12.44
2022-10-03T19:21:22.423Z,12.43
2022-10-03T19:23:29.899Z,12.39
2022-10-03T19:25:33.675Z,12.35
2022-10-03T19:27:45.119Z,12.32
2022-10-03T19:29:51.175Z,12.30
2022-10-03T19:32:07.160Z,12.24
2022-10-03T19:34:21.932Z,12.20
2022-10-03T19:36:29.316Z,12.15
2022-10-03T19:38:42.438Z,12.10
2022-10-03T19:41:05.759Z,12.05
2022-10-03T19:43:25.830Z,12.01
2022-10-03T19:45:27.495Z,11.99
2022-10-03T19:47:33.511Z,11.98
2022-10-03T19:49:37.874Z,11.96
2022-10-03T19:51:39.544Z,11.92
2022-10-03T19:53:43.950Z,11.90
2022-10-03T19:55:47.827Z,11.86
2022-10-03T19:57:53.951Z,11.85
2022-10-03T20:00:01.047Z,11.82
2022-10-03T20:02:06.765Z,11.81
2022-10-03T20:04:08.983Z,11.78
2022-10-03T20:06:23.530Z,11.74
2022-10-03T20:08:51.987Z,11.69
2022-10-03T20:10:53.378Z,11.57
2022-10-03T20:12:55.561Z,11.59
2022-10-03T20:15:18.599Z,11.57
2022-10-03T20:17:22.763Z,11.57
2022-10-03T20:19:27.579Z,11.55
2022-10-03T20:21:29.909Z,11.54
2022-10-03T20:23:33.365Z,11.52
2022-10-03T20:25:43.208Z,11.49
2022-10-03T20:27:55.651Z,11.44
2022-10-03T20:30:06.467Z,11.41
2022-10-03T20:32:15.349Z,11.36
2022-10-03T20:34:23.112Z,11.34
2022-10-03T20:36:39.988Z,11.29
2022-10-03T20:38:51.108Z,11.30
2022-10-03T20:41:05.584Z,11.30
2022-10-03T20:43:41.333Z,11.26
2022-10-03T20:45:46.021Z,11.24
2022-10-03T20:48:02.473Z,11.20
2022-10-03T20:50:24.276Z,11.18
2022-10-03T20:52:26.576Z,11.20
2022-10-03T20:54:48.975Z,11.19
2022-10-03T20:56:58.517Z,11.19
2022-10-03T20:59:06.114Z,11.19
2022-10-03T21:01:15.426Z,11.16
2022-10-03T21:03:42.961Z,11.10
2022-10-03T21:05:51.998Z,11.09
2022-10-03T21:07:55.408Z,11.07
2022-10-03T21:10:05.939Z,11.06
2022-10-03T21:12:16.715Z,11.05
2022-10-03T21:14:28.949Z,11.04
2022-10-03T21:16:34.902Z,11.05
2022-10-03T21:18:40.760Z,11.03
2022-10-03T21:20:42.213Z,11.01
2022-10-03T21:22:47.107Z,11.01
2022-10-03T21:24:53.137Z,10.99
2022-10-03T21:26:59.180Z,11.00
2022-10-03T21:29:26.615Z,10.98
2022-10-03T21:31:38.499Z,10.99
2022-10-03T21:33:56.274Z,10.95
2022-10-03T21:36:09.224Z,10.92
2022-10-03T21:38:34.864Z,10.89
2022-10-03T21:41:06.946Z,10.90
2022-10-03T21:43:33.125Z,10.89
2022-10-03T21:45:52.681Z,10.91
2022-10-03T21:48:05.013Z,10.91
2022-10-03T21:50:08.308Z,10.91
2022-10-03T21:52:09.670Z,10.91
2022-10-03T21:54:35.190Z,10.90
2022-10-03T21:56:50.842Z,10.88
2022-10-03T21:59:04.535Z,10.88
2022-10-03T22:01:13.174Z,10.87
2022-10-03T22:03:27.913Z,10.76
2022-10-03T22:06:00.280Z,10.77
2022-10-03T22:08:43.082Z,10.71
2022-10-03T22:11:12.657Z,10.72
2022-10-03T22:13:19.015Z,10.72
2022-10-03T22:15:26.457Z,10.72
2022-10-03T22:17:45.550Z,10.70
2022-10-03T22:19:58.952Z,10.71
2022-10-03T22:22:31.705Z,10.69
2022-10-03T22:25:04.300Z,10.70
2022-10-03T22:27:15.291Z,10.68
2022-10-03T22:29:48.353Z,10.68
2022-10-03T22:31:52.513Z,10.67
2022-10-03T22:34:03.075Z,10.67
2022-10-03T22:36:04.733Z,10.65
2022-10-03T22:38:07.278Z,10.62
2022-10-03T22:40:09.769Z,10.60
2022-10-03T22:42:14.582Z,10.59
2022-10-03T22:44:19.663Z,10.59
2022-10-03T22:46:32.390Z,10.58
2022-10-03T22:48:44.615Z,10.60
2022-10-03T22:50:46.579Z,10.59
2022-10-03T22:52:51.736Z,10.59
2022-10-03T22:54:55.250Z,10.58
2022-10-03T22:57:01.196Z,10.58
2022-10-03T22:59:06.583Z,10.57
2022-10-03T23:01:08.211Z,10.56
2022-10-03T23:03:32.480Z,10.55
2022-10-03T23:06:01.907Z,10.54
2022-10-03T23:08:06.389Z,10.55
2022-10-03T23:10:14.280Z,10.56
2022-10-03T23:12:19.075Z,10.55
2022-10-03T23:14:24.483Z,10.54
2022-10-03T23:17:16.975Z,10.54
2022-10-03T23:19:40.308Z,10.54
2022-10-03T23:21:50.226Z,10.55
2022-10-03T23:23:54.692Z,10.55
2022-10-03T23:26:02.171Z,10.56
2022-10-03T23:28:31.342Z,10.56
2022-10-03T23:30:32.742Z,10.56
2022-10-03T23:32:49.249Z,10.58
2022-10-03T23:35:12.465Z,10.59
2022-10-03T23:37:13.842Z,10.60
2022-10-03T23:39:32.530Z,10.61
2022-10-03T23:41:43.395Z,10.57
2022-10-03T23:43:44.903Z,10.59
2022-10-03T23:45:49.606Z,10.63
2022-10-03T23:48:02.314Z,10.63
2022-10-03T23:50:05.958Z,10.62
2022-10-03T23:52:15.778Z,10.65
2022-10-03T23:54:19.216Z,10.66
2022-10-03T23:56:23.656Z,10.68
2022-10-03T23:58:30.906Z,10.70
